Time;durP1;ratioP1;P1;durP2;ratioP2;P2;SDS_P1;SDS_P2;PMS_P1;PMS_P2;Temp;Humidity;BMP_temperature;BMP_pressure;BME280_temperature;BME280_humidity;BME280_pressure;Samples;Min_cycle;Max_cycle;Signal;HPM_P1;HPM_P2
2021/08/10 00:01:20;;;;;;;3.60;2.55;;;16.80;99.90;;;;;;5091870;28;20135;-42
2021/08/10 00:03:45;;;;;;;3.72;2.80;;;16.80;99.90;;;;;;5091112;28;20388;-39
2021/08/10 00:06:11;;;;;;;3.90;2.83;;;16.80;99.90;;;;;;5092406;28;20047;-44
2021/08/10 00:08:37;;;;;;;3.63;2.90;;;16.70;99.90;;;;;;5091243;28;20442;-40
2021/08/10 00:11:02;;;;;;;3.17;2.88;;;16.70;99.90;;;;;;5091181;28;20036;-40
2021/08/10 00:13:28;;;;;;;3.63;2.90;;;16.70;99.90;;;;;;5091786;28;20032;-40
2021/08/10 00:15:54;;;;;;;4.20;2.55;;;16.70;99.90;;;;;;5092663;28;20048;-38
2021/08/10 00:18:20;;;;;;;3.60;2.97;;;16.60;99.90;;;;;;5091772;28;20016;-43
2021/08/10 00:20:46;;;;;;;4.03;3.00;;;16.60;99.90;;;;;;5090268;28;20042;-42
2021/08/10 00:23:14;;;;;;;3.65;2.80;;;16.60;99.90;;;;;;5092872;28;20028;-44
2021/08/10 00:25:43;;;;;;;3.90;3.03;;;16.60;99.90;;;;;;5090929;28;20099;-42
2021/08/10 00:28:16;;;;;;;3.25;2.90;;;16.50;99.90;;;;;;5091392;28;20032;-44
2021/08/10 00:30:44;;;;;;;4.07;3.00;;;16.50;99.90;;;;;;5092065;28;20020;-43
2021/08/10 00:33:14;;;;;;;4.25;2.70;;;16.50;99.90;;;;;;5089900;28;20027;-40
2021/08/10 00:35:40;;;;;;;4.22;2.97;;;16.40;99.90;;;;;;5091721;28;20020;-43
2021/08/10 00:38:09;;;;;;;3.53;2.83;;;16.40;99.90;;;;;;5090118;28;20479;-44
2021/08/10 00:40:36;;;;;;;3.42;3.08;;;16.40;99.90;;;;;;5071540;28;20119;-44
2021/08/10 00:43:26;;;;;;;3.10;2.80;;;16.40;99.90;;;;;;5085554;28;20059;-44
2021/08/10 00:45:52;;;;;;;3.80;2.95;;;16.40;99.90;;;;;;5070173;28;20021;-41
2021/08/10 00:48:19;;;;;;;4.28;2.90;;;16.40;99.90;;;;;;5086208;28;20023;-44
2021/08/10 00:50:45;;;;;;;4.13;3.20;;;16.40;99.90;;;;;;5091286;28;20038;-41
2021/08/10 00:53:13;;;;;;;4.63;3.00;;;16.40;99.90;;;;;;5090680;28;20107;-45
2021/08/10 00:55:48;;;;;;;4.32;3.08;;;16.40;99.90;;;;;;5090841;28;20024;-41
2021/08/10 00:58:24;;;;;;;4.57;3.15;;;16.40;99.90;;;;;;5091550;28;20023;-42
2021/08/10 01:00:50;;;;;;;4.75;2.97;;;16.40;99.90;;;;;;5090518;28;20020;-44
2021/08/10 01:03:16;;;;;;;3.78;3.17;;;16.40;99.90;;;;;;5089818;28;20412;-44
2021/08/10 01:05:50;;;;;;;5.90;3.28;;;16.30;99.90;;;;;;5090622;28;20024;-43
2021/08/10 01:08:48;;;;;;;3.50;2.83;;;16.40;99.90;;;;;;5090333;28;20357;-40
2021/08/10 01:11:28;;;;;;;3.67;3.08;;;16.30;99.90;;;;;;5090152;28;20044;-39
2021/08/10 01:14:16;;;;;;;3.30;2.92;;;16.30;99.90;;;;;;5089471;28;20495;-39
2021/08/10 01:17:00;;;;;;;3.97;2.88;;;16.30;99.90;;;;;;5090364;28;20341;-40
2021/08/10 01:19:53;;;;;;;4.00;3.28;;;16.30;99.90;;;;;;5090155;28;20099;-40
2021/08/10 01:22:24;;;;;;;4.47;3.42;;;16.30;99.90;;;;;;5069678;28;20142;-43
2021/08/10 01:25:36;;;;;;;4.93;3.47;;;16.20;99.90;;;;;;5086265;28;20040;-41
2021/08/10 01:28:32;;;;;;;5.63;3.13;;;16.20;99.90;;;;;;5090015;28;20441;-40
2021/08/10 01:31:37;;;;;;;5.47;3.20;;;16.20;99.90;;;;;;5090546;28;20022;-41
2021/08/10 01:34:31;;;;;;;4.60;3.38;;;16.20;99.90;;;;;;5090047;28;20058;-38
2021/08/10 01:36:59;;;;;;;4.40;3.05;;;16.20;99.90;;;;;;5089624;28;20035;-39
2021/08/10 01:39:34;;;;;;;3.55;3.25;;;16.20;99.90;;;;;;5089478;28;20450;-44
2021/08/10 01:42:26;;;;;;;3.88;3.42;;;16.10;99.90;;;;;;5089766;28;20032;-41
2021/08/10 01:44:53;;;;;;;3.88;3.30;;;16.20;99.90;;;;;;5090019;28;20051;-40
2021/08/10 01:47:39;;;;;;;4.57;3.20;;;16.10;99.90;;;;;;5090659;28;20020;-43
2021/08/10 01:50:07;;;;;;;5.60;3.67;;;16.20;99.90;;;;;;5088796;28;20065;-40
2021/08/10 01:52:34;;;;;;;8.07;3.90;;;16.20;99.90;;;;;;5090392;28;20024;-41
2021/08/10 01:55:00;;;;;;;4.90;3.83;;;16.20;99.90;;;;;;5089922;28;20066;-42
2021/08/10 01:57:33;;;;;;;4.65;3.50;;;16.20;99.90;;;;;;5088720;28;20043;-41
2021/08/10 02:00:09;;;;;;;4.70;3.53;;;16.20;99.90;;;;;;5089652;28;20020;-44
2021/08/10 02:02:35;;;;;;;5.03;3.95;;;16.20;99.90;;;;;;5090101;28;20020;-43
2021/08/10 02:05:06;;;;;;;3.80;3.40;;;16.20;99.90;;;;;;5089576;28;20020;-42
2021/08/10 02:07:37;;;;;;;4.38;3.63;;;16.20;99.90;;;;;;5089434;28;20099;-44
2021/08/10 02:10:04;;;;;;;5.18;3.65;;;16.30;99.90;;;;;;5089296;28;20097;-38
2021/08/10 02:12:30;;;;;;;4.40;3.70;;;16.30;99.90;;;;;;5089803;28;20020;-43
2021/08/10 02:14:57;;;;;;;4.18;3.60;;;16.30;99.90;;;;;;5088347;28;20016;-44
2021/08/10 02:17:23;;;;;;;5.85;3.70;;;16.40;99.90;;;;;;5089195;28;20017;-41
2021/08/10 02:19:49;;;;;;;6.00;3.65;;;16.40;99.90;;;;;;5090221;28;20032;-42
2021/08/10 02:22:17;;;;;;;4.22;3.70;;;16.40;99.90;;;;;;5089868;28;20016;-43
2021/08/10 02:24:59;;;;;;;3.97;3.28;;;16.30;99.90;;;;;;5089731;28;20146;-41
2021/08/10 02:27:28;;;;;;;4.32;3.58;;;16.30;99.90;;;;;;5089448;28;20020;-42
2021/08/10 02:29:55;;;;;;;5.10;3.63;;;16.30;99.90;;;;;;5089306;28;20035;-41
2021/08/10 02:32:26;;;;;;;4.15;3.47;;;16.30;99.90;;;;;;5089171;28;20035;-40
2021/08/10 02:34:53;;;;;;;5.13;4.18;;;16.30;99.90;;;;;;5089795;28;20103;-44
2021/08/10 02:37:21;;;;;;;5.25;3.65;;;16.30;99.90;;;;;;5089935;28;20026;-40
2021/08/10 02:39:51;;;;;;;4.95;3.65;;;16.30;99.90;;;;;;5088713;28;20030;-40
2021/08/10 02:42:19;;;;;;;5.43;3.58;;;16.30;99.90;;;;;;5089313;28;20027;-43
2021/08/10 02:44:47;;;;;;;5.78;3.30;;;16.30;99.90;;;;;;5069294;28;20042;-42
2021/08/10 02:47:23;;;;;;;5.90;3.78;;;16.20;99.90;;;;;;5083543;28;20081;-42
2021/08/10 02:50:00;;;;;;;3.55;3.17;;;16.20;99.90;;;;;;5089569;28;20020;-44
2021/08/10 02:52:26;;;;;;;5.63;3.58;;;16.20;99.90;;;;;;5087673;28;20020;-40
2021/08/10 02:55:05;;;;;;;4.15;3.75;;;16.10;99.90;;;;;;5089181;28;20020;-39
2021/08/10 02:57:47;;;;;;;4.97;3.30;;;16.20;99.90;;;;;;5087328;28;20032;-42
2021/08/10 03:00:14;;;;;;;4.65;3.30;;;16.10;99.90;;;;;;5088389;28;20028;-44
2021/08/10 03:02:57;;;;;;;5.43;3.30;;;16.10;99.90;;;;;;5088309;28;20372;-36
2021/08/10 03:05:29;;;;;;;3.70;3.40;;;16.10;99.90;;;;;;5088650;28;20111;-41
2021/08/10 03:08:11;;;;;;;5.38;3.33;;;16.00;99.90;;;;;;5087608;28;20016;-43
2021/08/10 03:10:53;;;;;;;4.25;3.08;;;16.00;99.90;;;;;;5068457;28;20041;-42
2021/08/10 03:13:23;;;;;;;4.63;3.30;;;16.00;99.90;;;;;;5085299;28;20119;-42
2021/08/10 03:15:54;;;;;;;4.10;3.70;;;16.00;99.90;;;;;;5068762;28;20017;-39
2021/08/10 03:18:31;;;;;;;3.95;3.40;;;16.00;99.90;;;;;;5083895;28;20115;-43
2021/08/10 03:21:04;;;;;;;4.03;3.08;;;16.00;99.90;;;;;;5089480;28;20032;-42
2021/08/10 03:23:36;;;;;;;4.00;3.28;;;16.00;99.90;;;;;;5092815;28;20032;-43
2021/08/10 03:26:04;;;;;;;5.80;3.92;;;16.00;99.90;;;;;;5092759;28;20059;-41
2021/08/10 03:28:32;;;;;;;5.13;3.30;;;16.00;99.90;;;;;;5091207;28;20028;-44
2021/08/10 03:31:01;;;;;;;5.35;3.28;;;15.90;99.90;;;;;;5091787;28;20389;-42
2021/08/10 03:33:29;;;;;;;3.97;3.28;;;15.90;99.90;;;;;;5091722;28;20020;-39
2021/08/10 03:35:56;;;;;;;7.53;3.60;;;15.90;99.90;;;;;;5091978;28;20020;-38
2021/08/10 03:38:23;;;;;;;5.07;3.00;;;15.90;99.90;;;;;;5093137;28;20012;-42
2021/08/10 03:40:49;;;;;;;4.57;3.10;;;15.80;99.90;;;;;;5091693;28;20030;-40
2021/08/10 03:43:16;;;;;;;4.82;3.00;;;15.80;99.90;;;;;;5092175;28;20036;-41
2021/08/10 03:45:42;;;;;;;4.38;3.10;;;15.80;99.90;;;;;;5093376;28;20038;-44
2021/08/10 03:48:11;;;;;;;6.07;3.53;;;15.80;99.90;;;;;;5091931;28;20013;-42
2021/08/10 03:50:42;;;;;;;4.85;3.60;;;15.80;99.90;;;;;;5092781;28;20012;-40
2021/08/10 03:53:08;;;;;;;5.88;3.45;;;15.70;99.90;;;;;;5092797;28;20463;-43
2021/08/10 03:55:34;;;;;;;4.68;3.38;;;15.70;99.90;;;;;;5092658;28;20026;-43
2021/08/10 03:58:04;;;;;;;3.65;3.10;;;15.70;99.90;;;;;;5092664;28;20020;-44
2021/08/10 04:00:33;;;;;;;5.05;3.45;;;15.70;99.90;;;;;;5092984;28;20103;-41
2021/08/10 04:02:59;;;;;;;5.45;3.38;;;15.70;99.90;;;;;;5090927;28;20048;-41
2021/08/10 04:05:25;;;;;;;4.13;3.10;;;15.70;99.90;;;;;;5091876;28;20446;-42
2021/08/10 04:07:51;;;;;;;4.65;2.95;;;15.60;99.90;;;;;;5091972;28;20024;-42
2021/08/10 04:10:17;;;;;;;4.55;3.40;;;15.60;99.90;;;;;;5091842;28;20059;-44
2021/08/10 04:12:43;;;;;;;4.30;3.33;;;15.60;99.90;;;;;;5092342;28;20065;-41
2021/08/10 04:15:12;;;;;;;4.85;3.55;;;15.60;99.90;;;;;;5092039;28;20032;-42
2021/08/10 04:17:47;;;;;;;4.97;3.85;;;15.60;99.90;;;;;;5091086;28;20016;-42
2021/08/10 04:20:13;;;;;;;4.18;3.17;;;15.60;99.90;;;;;;5092450;28;20024;-41
2021/08/10 04:22:42;;;;;;;5.30;3.90;;;15.50;99.90;;;;;;5091939;28;20371;-40
2021/08/10 04:25:11;;;;;;;5.82;3.38;;;15.50;99.90;;;;;;5091092;28;20119;-42
2021/08/10 04:27:40;;;;;;;4.70;3.30;;;15.50;99.90;;;;;;5091737;28;20232;-42
2021/08/10 04:30:15;;;;;;;9.25;4.43;;;15.50;99.90;;;;;;5090572;28;20027;-42
2021/08/10 04:32:47;;;;;;;4.13;3.22;;;15.50;99.90;;;;;;5090884;28;20024;-43
2021/08/10 04:35:19;;;;;;;6.47;3.30;;;15.50;99.90;;;;;;5089047;28;20032;-42
2021/08/10 04:37:44;;;;;;;3.80;3.30;;;15.50;99.90;;;;;;5090775;28;20024;-40
2021/08/10 04:40:10;;;;;;;8.63;3.15;;;15.50;99.90;;;;;;5091661;28;20020;-43
2021/08/10 04:42:36;;;;;;;3.20;2.67;;;15.50;99.90;;;;;;5090649;28;20043;-44
2021/08/10 04:45:05;;;;;;;4.13;2.83;;;15.50;99.90;;;;;;5090648;28;20020;-40
2021/08/10 04:47:36;;;;;;;3.88;2.63;;;15.50;99.90;;;;;;5091018;28;20025;-42
2021/08/10 04:50:02;;;;;;;5.38;3.25;;;15.60;99.90;;;;;;5091016;28;20387;-41
2021/08/10 04:52:28;;;;;;;3.95;3.00;;;15.50;99.90;;;;;;5091609;28;20020;-42
2021/08/10 04:54:57;;;;;;;4.93;3.03;;;15.50;99.90;;;;;;5090841;28;20387;-42
2021/08/10 04:57:26;;;;;;;5.13;3.10;;;15.50;99.90;;;;;;5090691;28;20012;-45
2021/08/10 04:59:54;;;;;;;5.65;3.08;;;15.50;99.90;;;;;;5090014;28;20024;-40
2021/08/10 05:02:20;;;;;;;3.47;2.97;;;15.50;99.90;;;;;;5090995;28;20043;-44
2021/08/10 05:04:56;;;;;;;6.22;2.85;;;15.50;99.90;;;;;;5089792;28;20073;-38
2021/08/10 05:07:28;;;;;;;5.72;3.30;;;15.60;99.90;;;;;;5089007;28;20069;-43
2021/08/10 05:09:53;;;;;;;4.90;3.20;;;15.60;99.90;;;;;;5089910;28;20066;-43
2021/08/10 05:12:20;;;;;;;5.88;3.50;;;15.60;99.90;;;;;;5090213;28;20262;-44
2021/08/10 05:14:49;;;;;;;5.88;3.47;;;15.50;99.90;;;;;;5070109;28;20440;-39
2021/08/10 05:17:16;;;;;;;4.95;3.53;;;15.50;99.90;;;;;;5084734;28;20042;-44
2021/08/10 05:19:50;;;;;;;4.28;3.00;;;15.60;99.90;;;;;;5089987;28;20020;-42
2021/08/10 05:22:16;;;;;;;4.65;3.25;;;15.50;99.90;;;;;;5090323;28;20036;-42
2021/08/10 05:24:44;;;;;;;3.10;2.80;;;15.60;99.90;;;;;;5088534;28;20111;-43
2021/08/10 05:27:10;;;;;;;3.00;2.58;;;15.60;99.90;;;;;;5089890;28;20107;-43
2021/08/10 05:29:35;;;;;;;5.85;2.88;;;15.70;99.90;;;;;;5090112;28;20107;-41
2021/08/10 05:32:11;;;;;;;4.72;3.17;;;15.70;99.90;;;;;;5089591;28;20020;-46
2021/08/10 05:34:38;;;;;;;4.78;3.03;;;15.70;99.90;;;;;;5090228;28;20016;-42
2021/08/10 05:37:05;;;;;;;5.15;3.17;;;15.70;99.90;;;;;;5089738;28;20031;-42
2021/08/10 05:39:36;;;;;;;6.45;3.50;;;15.70;99.90;;;;;;5090184;28;20020;-41
2021/08/10 05:42:06;;;;;;;4.47;3.30;;;15.70;99.90;;;;;;5088812;28;20027;-45
2021/08/10 05:44:42;;;;;;;3.53;3.22;;;15.70;99.90;;;;;;5089476;28;20040;-44
2021/08/10 05:47:14;;;;;;;5.07;3.80;;;15.70;99.90;;;;;;5089740;28;20066;-42
2021/08/10 05:49:47;;;;;;;4.87;3.30;;;15.70;99.90;;;;;;5078399;28;20079;-43
2021/08/10 05:52:14;;;;;;;5.38;3.28;;;15.70;99.90;;;;;;5089737;28;20421;-42
2021/08/10 05:54:40;;;;;;;3.97;2.65;;;15.70;99.90;;;;;;5089976;28;20413;-42
2021/08/10 05:57:05;;;;;;;4.97;3.30;;;15.70;99.90;;;;;;5089818;28;20486;-42
2021/08/10 05:59:31;;;;;;;3.83;3.45;;;15.80;99.90;;;;;;5088851;28;20024;-41
2021/08/10 06:02:01;;;;;;;3.67;3.10;;;15.80;99.90;;;;;;5087838;28;20483;-43
2021/08/10 06:04:27;;;;;;;4.75;3.13;;;15.90;99.90;;;;;;5086315;28;20047;-44
2021/08/10 06:07:01;;;;;;;5.65;3.75;;;15.90;99.90;;;;;;5089071;28;20028;-41
2021/08/10 06:09:29;;;;;;;5.20;3.67;;;15.90;99.90;;;;;;5087964;28;20107;-40
2021/08/10 06:11:55;;;;;;;6.70;3.85;;;16.00;99.90;;;;;;5089333;28;20430;-41
2021/08/10 06:14:21;;;;;;;5.20;3.60;;;16.00;99.90;;;;;;5088646;28;20058;-44
2021/08/10 06:16:47;;;;;;;5.85;4.00;;;16.10;99.90;;;;;;5088693;28;20016;-41
2021/08/10 06:19:18;;;;;;;6.05;3.53;;;16.10;99.90;;;;;;5088477;28;20032;-43
2021/08/10 06:21:54;;;;;;;8.48;4.50;;;16.10;99.90;;;;;;5088968;28;20028;-41
2021/08/10 06:24:27;;;;;;;5.07;3.60;;;16.20;99.90;;;;;;5088295;28;20498;-41
2021/08/10 06:26:53;;;;;;;7.97;5.10;;;16.30;99.90;;;;;;5088506;28;20020;-45
2021/08/10 06:29:22;;;;;;;5.05;3.97;;;16.40;99.90;;;;;;5088120;28;20128;-42
2021/08/10 06:31:49;;;;;;;4.18;3.33;;;16.50;99.90;;;;;;5088144;28;20024;-45
2021/08/10 06:34:40;;;;;;;5.40;3.67;;;16.70;99.90;;;;;;5088637;28;20024;-40
2021/08/10 06:37:05;;;;;;;4.97;4.38;;;17.00;99.90;;;;;;5088579;28;20329;-43
2021/08/10 06:39:34;;;;;;;6.30;3.63;;;17.20;99.90;;;;;;5089907;28;20464;-37
2021/08/10 06:42:00;;;;;;;3.95;3.30;;;17.30;99.90;;;;;;5089309;28;20065;-41
2021/08/10 06:44:29;;;;;;;6.45;3.88;;;17.40;99.90;;;;;;5088452;28;20031;-39
2021/08/10 06:46:58;;;;;;;6.05;3.88;;;17.40;99.90;;;;;;5089490;28;20037;-42
2021/08/10 06:49:27;;;;;;;4.57;3.58;;;17.40;99.90;;;;;;5089815;28;20024;-45
2021/08/10 06:51:53;;;;;;;4.95;4.07;;;17.40;99.90;;;;;;5088009;28;20072;-42
2021/08/10 06:54:18;;;;;;;7.00;3.88;;;17.50;99.90;;;;;;5089252;28;20516;-39
2021/08/10 06:56:55;;;;;;;4.47;3.70;;;17.50;99.90;;;;;;5088890;28;20066;-40
2021/08/10 06:59:25;;;;;;;5.70;3.45;;;17.60;99.90;;;;;;5088078;28;20075;-41
2021/08/10 07:01:51;;;;;;;5.70;3.20;;;17.70;99.90;;;;;;5087948;28;20035;-44
2021/08/10 07:04:16;;;;;;;5.28;4.10;;;17.70;99.90;;;;;;5089159;28;20457;-39
2021/08/10 07:06:45;;;;;;;6.82;4.10;;;17.70;99.90;;;;;;5088108;28;20024;-43
2021/08/10 07:09:11;;;;;;;5.05;4.20;;;17.80;99.90;;;;;;5090016;28;20108;-39
2021/08/10 07:11:41;;;;;;;5.85;3.92;;;17.80;99.90;;;;;;5088456;28;20177;-42
2021/08/10 07:14:11;;;;;;;4.22;3.75;;;17.80;99.90;;;;;;5088830;28;20086;-42
2021/08/10 07:16:37;;;;;;;4.60;3.95;;;17.80;99.90;;;;;;5088359;28;20051;-41
2021/08/10 07:19:03;;;;;;;6.43;4.13;;;17.90;99.90;;;;;;5087904;28;20016;-43
2021/08/10 07:21:29;;;;;;;5.85;4.07;;;18.00;99.90;;;;;;5087199;28;20028;-45
2021/08/10 07:23:55;;;;;;;5.38;3.70;;;18.10;99.90;;;;;;5105618;28;20483;-41
2021/08/10 07:26:20;;;;;;;7.82;4.40;;;18.20;99.90;;;;;;5088397;28;20036;-43
2021/08/10 07:28:46;;;;;;;4.40;3.35;;;18.30;99.90;;;;;;5087969;28;20032;-43
2021/08/10 07:31:11;;;;;;;6.05;3.88;;;18.50;99.90;;;;;;5088265;28;20495;-41
2021/08/10 07:33:37;;;;;;;6.97;3.72;;;18.60;99.90;;;;;;5087771;28;20077;-40
2021/08/10 07:36:03;;;;;;;6.65;4.32;;;18.60;99.90;;;;;;5088311;28;20463;-41
2021/08/10 07:38:28;;;;;;;5.47;3.50;;;18.60;99.90;;;;;;5089451;28;20020;-41
2021/08/10 07:40:57;;;;;;;8.38;4.35;;;18.50;99.90;;;;;;5090485;28;20073;-43
2021/08/10 07:43:23;;;;;;;7.80;4.57;;;18.40;99.90;;;;;;5087451;28;20395;-42
2021/08/10 07:45:49;;;;;;;6.68;4.28;;;18.40;99.90;;;;;;5089147;28;20787;-39
2021/08/10 07:48:15;;;;;;;7.57;4.30;;;18.40;99.90;;;;;;5089220;28;20028;-44
2021/08/10 07:50:52;;;;;;;5.90;3.85;;;18.50;99.90;;;;;;5087368;28;20059;-42
2021/08/10 07:53:21;;;;;;;7.78;4.35;;;18.60;99.90;;;;;;5088714;28;20043;-42
2021/08/10 07:55:48;;;;;;;7.10;4.00;;;18.70;99.90;;;;;;5090575;28;20031;-44
2021/08/10 07:58:14;;;;;;;6.70;3.80;;;18.80;99.90;;;;;;5089052;28;20086;-44
2021/08/10 08:00:40;;;;;;;6.53;4.57;;;18.80;99.90;;;;;;5086871;28;20063;-40
2021/08/10 08:03:06;;;;;;;6.68;3.90;;;18.80;99.90;;;;;;5085459;28;20457;-41
2021/08/10 08:05:32;;;;;;;6.93;4.15;;;18.70;99.90;;;;;;5087260;28;20028;-43
2021/08/10 08:07:59;;;;;;;7.22;5.25;;;18.70;99.90;;;;;;5089628;28;20016;-42
2021/08/10 08:10:25;;;;;;;6.32;4.55;;;18.70;99.90;;;;;;5090280;28;20040;-42
2021/08/10 08:12:50;;;;;;;9.88;4.97;;;18.70;99.90;;;;;;5089376;28;20020;-42
2021/08/10 08:15:16;;;;;;;6.38;4.43;;;18.80;99.90;;;;;;5090126;28;20051;-40
2021/08/10 08:17:44;;;;;;;7.90;4.75;;;19.00;99.90;;;;;;5090537;28;20024;-41
2021/08/10 08:20:11;;;;;;;6.35;4.88;;;19.00;99.90;;;;;;5090954;28;20020;-40
2021/08/10 08:22:36;;;;;;;7.40;4.68;;;19.10;99.90;;;;;;5089968;28;20048;-40
2021/08/10 08:25:03;;;;;;;5.60;4.43;;;19.20;99.90;;;;;;5090904;28;20059;-42
2021/08/10 08:27:28;;;;;;;7.72;4.55;;;19.20;99.90;;;;;;5090943;28;20027;-42
2021/08/10 08:29:54;;;;;;;6.53;4.53;;;19.20;99.90;;;;;;5087807;28;20017;-39
2021/08/10 08:32:20;;;;;;;5.18;3.83;;;19.20;99.90;;;;;;5091369;28;20407;-43
2021/08/10 08:34:45;;;;;;;7.90;4.45;;;19.30;99.90;;;;;;5090742;28;20052;-39
2021/08/10 08:37:12;;;;;;;6.15;4.25;;;19.40;99.90;;;;;;5091423;28;20020;-43
2021/08/10 08:39:38;;;;;;;4.25;3.63;;;19.40;99.90;;;;;;5090776;28;20548;-40
2021/08/10 08:42:04;;;;;;;4.07;3.35;;;19.40;99.90;;;;;;5091371;28;20243;-41
2021/08/10 08:44:36;;;;;;;4.47;3.10;;;19.50;99.90;;;;;;5090116;28;20032;-41
2021/08/10 08:47:07;;;;;;;4.72;2.90;;;19.50;99.90;;;;;;5091302;28;20024;-41
2021/08/10 08:49:34;;;;;;;3.63;2.78;;;19.50;99.90;;;;;;5089620;28;20373;-41
2021/08/10 08:52:03;;;;;;;5.45;2.85;;;19.40;99.90;;;;;;5073127;28;20016;-44
2021/08/10 08:54:31;;;;;;;4.53;2.78;;;19.50;99.90;;;;;;5090632;28;20032;-42
2021/08/10 08:56:57;;;;;;;3.50;2.75;;;19.50;99.90;;;;;;5090722;28;20380;-41
2021/08/10 08:59:23;;;;;;;4.82;3.55;;;19.70;99.90;;;;;;5090495;28;20027;-44
2021/08/10 09:01:50;;;;;;;4.38;2.65;;;19.80;99.90;;;;;;5090661;28;20023;-39
2021/08/10 09:04:16;;;;;;;4.20;2.95;;;20.00;99.90;;;;;;5009053;28;20565;-44
2021/08/10 09:06:42;;;;;;;3.90;2.40;;;20.10;99.90;;;;;;5030456;28;20056;-42
2021/08/10 09:09:33;;;;;;;5.32;3.20;;;20.30;99.90;;;;;;5030600;28;20049;-42
2021/08/10 09:12:07;;;;;;;4.85;2.95;;;20.40;99.90;;;;;;5029188;28;20425;-41
2021/08/10 09:14:52;;;;;;;4.55;2.65;;;20.50;99.90;;;;;;5030050;28;20009;-41
2021/08/10 09:17:20;;;;;;;4.10;2.67;;;20.50;99.90;;;;;;5030509;28;20541;-44
2021/08/10 09:20:02;;;;;;;4.63;2.80;;;20.40;99.90;;;;;;5029292;28;20527;-41
2021/08/10 09:22:33;;;;;;;4.80;2.50;;;20.30;99.90;;;;;;5030504;28;20029;-43
2021/08/10 09:25:00;;;;;;;3.45;2.10;;;20.30;99.90;;;;;;5029501;28;20095;-41
2021/08/10 09:27:37;;;;;;;2.90;2.08;;;20.30;99.90;;;;;;5030063;28;20100;-40
2021/08/10 09:30:15;;;;;;;4.35;2.67;;;20.30;99.90;;;;;;5029408;28;20017;-42
2021/08/10 09:33:03;;;;;;;5.13;2.40;;;20.20;99.90;;;;;;5029203;28;20017;-43
2021/08/10 09:35:32;;;;;;;3.90;2.58;;;20.30;99.90;;;;;;5029524;28;20031;-43
2021/08/10 09:38:02;;;;;;;3.72;2.90;;;20.40;99.90;;;;;;5029831;28;20029;-41
2021/08/10 09:40:30;;;;;;;3.38;2.60;;;20.50;99.90;;;;;;5029630;28;20045;-39
2021/08/10 09:43:26;;;;;;;3.70;2.33;;;20.50;99.90;;;;;;5029679;28;20068;-40
2021/08/10 09:46:07;;;;;;;3.25;2.33;;;20.60;99.90;;;;;;5029181;28;20381;-42
2021/08/10 09:48:33;;;;;;;3.60;2.50;;;20.80;99.90;;;;;;5032434;28;20469;-41
2021/08/10 09:51:13;;;;;;;3.55;2.47;;;20.80;99.90;;;;;;5029254;28;20033;-42
2021/08/10 09:53:42;;;;;;;2.70;2.15;;;20.80;99.90;;;;;;5036407;28;20017;-40
2021/08/10 09:56:09;;;;;;;2.88;2.20;;;20.70;99.90;;;;;;5036028;28;20117;-37
2021/08/10 09:59:00;;;;;;;3.90;2.60;;;20.60;99.90;;;;;;5029485;28;20029;-39
2021/08/10 10:01:47;;;;;;;4.53;2.65;;;20.40;99.90;;;;;;5029070;28;20029;-45
2021/08/10 10:04:22;;;;;;;2.65;2.10;;;20.40;99.90;;;;;;5029450;28;20359;-43
2021/08/10 10:06:50;;;;;;;3.85;2.38;;;20.30;99.90;;;;;;5029322;28;20022;-44
2021/08/10 10:09:17;;;;;;;3.95;2.33;;;20.40;99.90;;;;;;5029516;28;20029;-45
2021/08/10 10:11:46;;;;;;;2.50;2.17;;;20.50;99.90;;;;;;5028559;28;20025;-42
2021/08/10 10:14:12;;;;;;;2.80;2.35;;;20.50;99.90;;;;;;5034300;28;20487;-42
2021/08/10 10:16:42;;;;;;;3.33;2.03;;;20.60;99.90;;;;;;5028419;28;20136;-42
2021/08/10 10:19:16;;;;;;;4.93;2.33;;;20.50;99.90;;;;;;5030112;28;20022;-41
2021/08/10 10:21:52;;;;;;;2.97;2.25;;;20.50;99.90;;;;;;5029081;28;20017;-42
2021/08/10 10:24:20;;;;;;;4.20;2.05;;;20.50;99.90;;;;;;5033300;28;20041;-40
2021/08/10 10:26:50;;;;;;;4.30;2.15;;;20.50;99.90;;;;;;5035321;28;20013;-45
2021/08/10 10:29:16;;;;;;;3.78;2.10;;;20.50;99.90;;;;;;5037192;28;20039;-41
2021/08/10 10:31:43;;;;;;;4.60;2.30;;;20.40;99.90;;;;;;5040196;28;20021;-42
2021/08/10 10:34:13;;;;;;;3.80;2.40;;;20.40;99.90;;;;;;5029386;28;20037;-44
2021/08/10 10:36:43;;;;;;;3.15;2.40;;;20.40;99.90;;;;;;5027857;28;20013;-40
2021/08/10 10:39:12;;;;;;;2.50;2.20;;;20.50;99.90;;;;;;5033531;28;20059;-42
2021/08/10 10:41:38;;;;;;;4.22;2.70;;;20.60;99.90;;;;;;5046073;28;20048;-43
2021/08/10 10:44:07;;;;;;;3.03;2.30;;;20.80;99.90;;;;;;5028918;28;20021;-41
2021/08/10 10:46:37;;;;;;;5.53;2.55;;;21.00;99.90;;;;;;5029516;28;20079;-38
2021/08/10 10:49:05;;;;;;;5.07;2.65;;;21.20;99.90;;;;;;5028193;28;20515;-44
2021/08/10 10:51:36;;;;;;;3.95;2.80;;;21.40;99.70;;;;;;5029176;28;20045;-38
2021/08/10 10:54:27;;;;;;;4.22;2.35;;;21.80;99.50;;;;;;5029108;28;20018;-41
2021/08/10 10:57:00;;;;;;;4.55;2.80;;;21.90;99.00;;;;;;5028445;28;20510;-38
2021/08/10 10:59:31;;;;;;;3.65;2.25;;;21.90;98.70;;;;;;5027998;28;20465;-42
2021/08/10 11:02:13;;;;;;;5.15;3.90;;;22.00;98.50;;;;;;5028720;28;20071;-43
2021/08/10 11:04:59;;;;;;;4.57;3.35;;;22.10;97.30;;;;;;5027433;28;20040;-40
2021/08/10 11:07:47;;;;;;;4.88;2.60;;;22.20;97.10;;;;;;5028673;28;20393;-42
2021/08/10 11:10:38;;;;;;;6.45;3.10;;;22.30;97.40;;;;;;5028266;28;20053;-42
2021/08/10 11:13:18;;;;;;;4.18;2.70;;;22.30;96.90;;;;;;5027778;28;20041;-41
2021/08/10 11:15:44;;;;;;;4.70;2.75;;;22.30;96.60;;;;;;5028944;28;20061;-44
2021/08/10 11:18:10;;;;;;;4.45;2.65;;;22.40;96.60;;;;;;5028048;28;20056;-37
2021/08/10 11:20:44;;;;;;;4.15;3.00;;;22.40;96.60;;;;;;5028985;28;20180;-40
2021/08/10 11:23:26;;;;;;;4.30;2.75;;;22.60;96.10;;;;;;5028127;28;20033;-42
2021/08/10 11:26:12;;;;;;;3.85;2.53;;;22.70;95.90;;;;;;5016758;28;20492;-41
2021/08/10 11:28:51;;;;;;;3.53;2.47;;;22.70;95.80;;;;;;5027415;28;20109;-41
2021/08/10 11:31:42;;;;;;;5.32;2.92;;;22.60;95.50;;;;;;5029093;28;20527;-41
2021/08/10 11:34:34;;;;;;;7.47;3.67;;;22.60;95.30;;;;;;5027262;28;20024;-43
2021/08/10 11:37:19;;;;;;;5.30;3.17;;;22.40;94.70;;;;;;5026770;28;20025;-41
2021/08/10 11:40:06;;;;;;;5.03;2.78;;;22.30;94.90;;;;;;5025799;28;20268;-40
2021/08/10 11:42:31;;;;;;;3.42;2.95;;;22.30;95.20;;;;;;5029924;28;20415;-42
2021/08/10 11:44:57;;;;;;;2.88;2.58;;;22.20;95.20;;;;;;5030441;28;20175;-43
2021/08/10 11:47:23;;;;;;;4.65;2.70;;;22.20;95.20;;;;;;5031376;28;20021;-40
2021/08/10 11:49:54;;;;;;;3.95;2.60;;;22.10;95.30;;;;;;5031646;28;20453;-41
2021/08/10 11:52:20;;;;;;;3.97;2.80;;;22.10;95.50;;;;;;5032193;28;20041;-38
2021/08/10 11:54:57;;;;;;;3.65;2.63;;;22.20;95.70;;;;;;5030121;28;20437;-41
2021/08/10 11:57:23;;;;;;;4.68;2.90;;;22.30;95.90;;;;;;5031659;28;20018;-38
2021/08/10 11:59:51;;;;;;;7.68;3.25;;;22.40;95.60;;;;;;5030937;28;20028;-42
2021/08/10 12:02:17;;;;;;;4.88;3.00;;;22.50;95.60;;;;;;5031888;28;20022;-39
2021/08/10 12:04:42;;;;;;;4.60;2.83;;;22.60;95.20;;;;;;5031343;28;20560;-42
2021/08/10 12:07:08;;;;;;;6.32;3.05;;;22.60;94.90;;;;;;5031329;28;20030;-42
2021/08/10 12:09:39;;;;;;;3.78;2.88;;;22.50;95.20;;;;;;5030874;28;20040;-40
2021/08/10 12:12:07;;;;;;;4.30;2.88;;;22.50;95.30;;;;;;5030876;28;20048;-43
2021/08/10 12:14:34;;;;;;;4.68;2.70;;;22.60;94.70;;;;;;5030676;28;20061;-36
2021/08/10 12:17:13;;;;;;;5.63;2.78;;;22.60;95.00;;;;;;5030653;28;20168;-41
2021/08/10 12:19:43;;;;;;;3.50;2.80;;;22.60;95.00;;;;;;5031680;28;20183;-42
2021/08/10 12:22:23;;;;;;;6.13;3.05;;;22.60;94.70;;;;;;5030356;28;20553;-41
2021/08/10 12:24:51;;;;;;;4.32;2.92;;;22.50;94.90;;;;;;5029358;28;20164;-43
2021/08/10 12:27:18;;;;;;;4.53;2.90;;;22.40;95.20;;;;;;5030642;28;20017;-42
2021/08/10 12:29:47;;;;;;;7.30;3.65;;;22.40;95.20;;;;;;5030165;28;20017;-41
2021/08/10 12:32:21;;;;;;;5.57;3.17;;;22.50;95.10;;;;;;5031388;28;20028;-40
2021/08/10 12:34:47;;;;;;;4.28;2.80;;;22.60;94.70;;;;;;5030452;28;20025;-41
2021/08/10 12:37:13;;;;;;;6.25;3.40;;;22.80;94.50;;;;;;5030457;28;20025;-41
2021/08/10 12:39:40;;;;;;;4.72;3.08;;;22.90;94.50;;;;;;5031931;28;20033;-43
2021/08/10 12:42:06;;;;;;;5.90;2.92;;;23.10;94.30;;;;;;5030438;28;20026;-38
2021/08/10 12:44:33;;;;;;;4.25;2.78;;;23.10;93.90;;;;;;5030850;28;20037;-43
2021/08/10 12:47:00;;;;;;;4.03;2.97;;;23.00;93.80;;;;;;5031194;28;20433;-37
2021/08/10 12:49:44;;;;;;;3.38;2.70;;;23.00;94.00;;;;;;5030671;28;20029;-41
2021/08/10 12:52:17;;;;;;;4.85;3.10;;;23.00;94.30;;;;;;5030384;28;20104;-39
2021/08/10 12:54:53;;;;;;;4.88;3.20;;;23.20;94.20;;;;;;5030890;28;20199;-43
2021/08/10 12:57:20;;;;;;;4.10;3.00;;;23.20;93.90;;;;;;5030665;28;20026;-43
2021/08/10 12:59:57;;;;;;;6.25;3.30;;;23.30;93.50;;;;;;5030460;28;20032;-43
2021/08/10 13:02:38;;;;;;;4.32;2.97;;;23.10;93.90;;;;;;5031478;28;20150;-43
2021/08/10 13:05:15;;;;;;;4.50;2.95;;;23.10;94.00;;;;;;5030528;28;20033;-42
2021/08/10 13:08:01;;;;;;;5.07;3.10;;;23.10;94.20;;;;;;5030054;28;20025;-44